sensor_id;sensor_type;location;lat;lon;timestamp;pressure;altitude;pressure_sealevel;temperature;humidity
15674;BME280;7937;48.090;16.212;2023-06-24T00:01:36;98076.50;;;15.56;78.92
15674;BME280;7937;48.090;16.212;2023-06-24T00:04:40;98020.16;;;15.71;75.53
15674;BME280;7937;48.090;16.212;2023-06-24T00:07:43;97918.50;;;14.91;76.06
15674;BME280;7937;48.090;16.212;2023-06-24T00:10:48;97948.06;;;15.12;75.21
15674;BME280;7937;48.090;16.212;2023-06-24T00:13:51;98067.47;;;15.82;75.77
15674;BME280;7937;48.090;16.212;2023-06-24T00:16:54;97971.69;;;15.10;77.36
15674;BME280;7937;48.090;16.212;2023-06-24T00:19:56;98082.53;;;15.83;76.69
15674;BME280;7937;48.090;16.212;2023-06-24T00:22:59;97910.88;;;14.63;79.07
15674;BME280;7937;48.090;16.212;2023-06-24T00:26:01;97989.38;;;15.11;79.65
15674;BME280;7937;48.090;16.212;2023-06-24T00:29:04;97904.84;;;14.93;74.86
15674;BME280;7937;48.090;16.212;2023-06-24T00:32:07;97992.41;;;15.30;78.07
15674;BME280;7937;48.090;16.212;2023-06-24T00:35:10;98077.41;;;15.77;78.00
15674;BME280;7937;48.090;16.212;2023-06-24T00:38:14;98089.78;;;15.78;76.26
15674;BME280;7937;48.090;16.212;2023-06-24T00:41:17;98119.38;;;16.13;75.40
15674;BME280;7937;48.090;16.212;2023-06-24T00:44:23;97949.88;;;14.86;78.58
15674;BME280;7937;48.090;16.212;2023-06-24T00:47:25;98086.69;;;15.48;79.54
15674;BME280;7937;48.090;16.212;2023-06-24T00:50:28;98010.31;;;15.04;81.59
15674;BME280;7937;48.090;16.212;2023-06-24T00:53:31;98086.09;;;15.36;79.36
15674;BME280;7937;48.090;16.212;2023-06-24T00:56:37;98023.31;;;15.42;77.87
15674;BME280;7937;48.090;16.212;2023-06-24T00:59:46;97933.97;;;14.69;78.41
15674;BME280;7937;48.090;16.212;2023-06-24T01:02:50;98086.13;;;15.46;80.79
15674;BME280;7937;48.090;16.212;2023-06-24T01:05:54;97998.94;;;14.81;81.57
15674;BME280;7937;48.090;16.212;2023-06-24T01:08:59;98080.16;;;15.24;81.07
15674;BME280;7937;48.090;16.212;2023-06-24T01:12:02;98115.81;;;15.67;79.98
15674;BME280;7937;48.090;16.212;2023-06-24T01:15:07;98080.47;;;15.33;83.69
15674;BME280;7937;48.090;16.212;2023-06-24T01:18:32;98110.16;;;15.68;81.00
15674;BME280;7937;48.090;16.212;2023-06-24T01:21:58;98038.81;;;15.20;80.54
15674;BME280;7937;48.090;16.212;2023-06-24T01:32:34;98049.00;;;15.13;81.76
15674;BME280;7937;48.090;16.212;2023-06-24T01:35:42;98096.84;;;15.36;83.13
15674;BME280;7937;48.090;16.212;2023-06-24T01:38:52;97909.00;;;14.16;82.11
15674;BME280;7937;48.090;16.212;2023-06-24T01:42:10;98003.16;;;14.72;81.66
15674;BME280;7937;48.090;16.212;2023-06-24T01:45:22;98097.91;;;15.30;83.54
15674;BME280;7937;48.090;16.212;2023-06-24T01:48:28;97970.94;;;14.62;81.78
15674;BME280;7937;48.090;16.212;2023-06-24T01:51:35;98107.84;;;15.35;83.12
15674;BME280;7937;48.090;16.212;2023-06-24T01:54:40;98065.84;;;15.03;81.43
15674;BME280;7937;48.090;16.212;2023-06-24T01:57:44;97893.41;;;14.08;79.83
15674;BME280;7937;48.090;16.212;2023-06-24T02:00:49;98093.59;;;15.29;80.53
15674;BME280;7937;48.090;16.212;2023-06-24T02:03:52;98092.00;;;15.33;79.96
15674;BME280;7937;48.090;16.212;2023-06-24T02:07:03;98143.66;;;15.61;85.01
15674;BME280;7937;48.090;16.212;2023-06-24T02:10:07;98061.22;;;14.88;85.99
15674;BME280;7937;48.090;16.212;2023-06-24T02:13:11;98080.22;;;14.87;86.42
15674;BME280;7937;48.090;16.212;2023-06-24T02:16:16;97953.00;;;14.20;83.50
15674;BME280;7937;48.090;16.212;2023-06-24T02:19:19;97931.19;;;14.06;84.48
15674;BME280;7937;48.090;16.212;2023-06-24T02:22:22;98166.75;;;15.57;83.29
15674;BME280;7937;48.090;16.212;2023-06-24T02:25:26;98104.22;;;15.04;85.77
15674;BME280;7937;48.090;16.212;2023-06-24T02:28:32;98133.03;;;15.23;84.94
15674;BME280;7937;48.090;16.212;2023-06-24T02:31:36;98169.16;;;15.53;83.37
15674;BME280;7937;48.090;16.212;2023-06-24T02:34:39;98138.94;;;15.26;83.80
15674;BME280;7937;48.090;16.212;2023-06-24T02:37:42;98128.47;;;15.24;85.75
15674;BME280;7937;48.090;16.212;2023-06-24T02:40:47;97977.94;;;14.26;85.73
15674;BME280;7937;48.090;16.212;2023-06-24T02:43:49;98129.34;;;15.40;82.90
15674;BME280;7937;48.090;16.212;2023-06-24T02:46:51;98127.41;;;15.30;83.47
15674;BME280;7937;48.090;16.212;2023-06-24T02:49:55;98139.50;;;15.28;83.88
15674;BME280;7937;48.090;16.212;2023-06-24T02:53:00;98123.84;;;15.14;84.70
15674;BME280;7937;48.090;16.212;2023-06-24T02:56:08;98154.53;;;15.29;84.72
15674;BME280;7937;48.090;16.212;2023-06-24T02:59:14;98002.03;;;14.20;84.40
15674;BME280;7937;48.090;16.212;2023-06-24T03:02:16;98118.50;;;15.14;83.68
15674;BME280;7937;48.090;16.212;2023-06-24T03:05:19;97993.50;;;14.29;84.87
15674;BME280;7937;48.090;16.212;2023-06-24T03:08:23;98099.69;;;15.09;83.63
15674;BME280;7937;48.090;16.212;2023-06-24T03:11:26;98131.88;;;15.09;85.57
15674;BME280;7937;48.090;16.212;2023-06-24T03:14:32;98119.41;;;14.88;85.90
15674;BME280;7937;48.090;16.212;2023-06-24T03:17:34;98070.66;;;14.54;86.34
15674;BME280;7937;48.090;16.212;2023-06-24T03:20:37;98194.56;;;15.35;86.21
15674;BME280;7937;48.090;16.212;2023-06-24T03:23:45;98194.28;;;15.37;86.14
15674;BME280;7937;48.090;16.212;2023-06-24T03:26:49;98147.31;;;14.92;87.06
15674;BME280;7937;48.090;16.212;2023-06-24T03:30:02;98032.22;;;14.11;86.89
15674;BME280;7937;48.090;16.212;2023-06-24T03:33:07;98189.47;;;15.34;86.67
15674;BME280;7937;48.090;16.212;2023-06-24T03:36:10;98154.41;;;15.08;86.63
15674;BME280;7937;48.090;16.212;2023-06-24T03:39:13;98155.19;;;15.04;86.79
15674;BME280;7937;48.090;16.212;2023-06-24T03:42:18;98195.06;;;15.27;87.23
15674;BME280;7937;48.090;16.212;2023-06-24T03:45:21;98193.19;;;15.28;87.85
15674;BME280;7937;48.090;16.212;2023-06-24T03:48:23;98189.69;;;15.27;88.46
15674;BME280;7937;48.090;16.212;2023-06-24T03:51:26;98175.97;;;15.23;88.81
15674;BME280;7937;48.090;16.212;2023-06-24T03:54:28;98137.84;;;14.79;89.15
15674;BME280;7937;48.090;16.212;2023-06-24T03:57:30;98157.53;;;14.95;89.62
15674;BME280;7937;48.090;16.212;2023-06-24T04:00:33;98132.38;;;14.64;91.57
15674;BME280;7937;48.090;16.212;2023-06-24T04:03:35;98201.66;;;15.09;89.28
15674;BME280;7937;48.090;16.212;2023-06-24T04:06:38;98049.28;;;14.00;89.04
15674;BME280;7937;48.090;16.212;2023-06-24T04:09:40;98159.97;;;14.59;91.63
15674;BME280;7937;48.090;16.212;2023-06-24T04:12:42;98143.56;;;14.56;91.26
15674;BME280;7937;48.090;16.212;2023-06-24T04:15:44;98136.88;;;14.53;91.59
15674;BME280;7937;48.090;16.212;2023-06-24T04:18:47;98071.56;;;14.05;91.62
15674;BME280;7937;48.090;16.212;2023-06-24T04:21:49;98004.84;;;13.72;90.77
15674;BME280;7937;48.090;16.212;2023-06-24T04:24:52;98146.22;;;14.51;92.28
15674;BME280;7937;48.090;16.212;2023-06-24T04:27:54;98008.38;;;13.77;91.08
15674;BME280;7937;48.090;16.212;2023-06-24T04:30:56;98122.69;;;14.63;89.45
15674;BME280;7937;48.090;16.212;2023-06-24T04:33:58;98209.09;;;15.02;90.61
15674;BME280;7937;48.090;16.212;2023-06-24T04:37:01;98153.16;;;14.79;89.77
15674;BME280;7937;48.090;16.212;2023-06-24T04:40:03;98144.59;;;14.50;90.59
15674;BME280;7937;48.090;16.212;2023-06-24T04:43:05;98207.56;;;15.11;89.50
15674;BME280;7937;48.090;16.212;2023-06-24T04:46:08;97937.81;;;13.34;89.12
15674;BME280;7937;48.090;16.212;2023-06-24T04:49:11;98219.66;;;15.14;90.07
15674;BME280;7937;48.090;16.212;2023-06-24T04:52:14;98232.75;;;15.05;90.22
15674;BME280;7937;48.090;16.212;2023-06-24T04:55:17;98165.59;;;14.63;91.05
15674;BME280;7937;48.090;16.212;2023-06-24T04:58:19;98238.88;;;15.01;91.60
15674;BME280;7937;48.090;16.212;2023-06-24T05:01:22;98234.34;;;15.06;92.18
15674;BME280;7937;48.090;16.212;2023-06-24T05:04:25;98207.38;;;14.86;91.09
15674;BME280;7937;48.090;16.212;2023-06-24T05:07:27;98113.13;;;14.40;90.16
15674;BME280;7937;48.090;16.212;2023-06-24T05:10:29;98099.66;;;14.30;90.33
15674;BME280;7937;48.090;16.212;2023-06-24T05:13:31;98228.56;;;15.19;91.22
15674;BME280;7937;48.090;16.212;2023-06-24T05:16:34;98180.63;;;14.96;90.50
15674;BME280;7937;48.090;16.212;2023-06-24T05:19:36;98226.25;;;15.38;91.18
15674;BME280;7937;48.090;16.212;2023-06-24T05:22:38;98030.16;;;14.23;88.91
15674;BME280;7937;48.090;16.212;2023-06-24T05:25:40;98189.09;;;15.20;88.00
15674;BME280;7937;48.090;16.212;2023-06-24T05:28:43;98243.00;;;15.56;85.63
15674;BME280;7937;48.090;16.212;2023-06-24T05:31:45;98161.81;;;14.91;86.98
15674;BME280;7937;48.090;16.212;2023-06-24T05:34:48;98285.97;;;15.56;86.52
15674;BME280;7937;48.090;16.212;2023-06-24T05:37:50;98263.03;;;15.38;86.92
15674;BME280;7937;48.090;16.212;2023-06-24T05:40:52;98203.25;;;15.10;86.83
15674;BME280;7937;48.090;16.212;2023-06-24T05:44:02;98276.38;;;15.65;86.29
15674;BME280;7937;48.090;16.212;2023-06-24T05:47:05;98229.22;;;15.00;87.67
15674;BME280;7937;48.090;16.212;2023-06-24T05:50:07;98265.25;;;15.09;89.65
15674;BME280;7937;48.090;16.212;2023-06-24T05:53:09;98287.06;;;15.17;89.65
15674;BME280;7937;48.090;16.212;2023-06-24T05:56:11;98131.34;;;14.11;89.79
15674;BME280;7937;48.090;16.212;2023-06-24T05:59:14;98255.06;;;14.79;90.77
15674;BME280;7937;48.090;16.212;2023-06-24T06:02:16;98290.66;;;15.01;91.16
15674;BME280;7937;48.090;16.212;2023-06-24T06:05:18;98219.34;;;14.73;86.57
15674;BME280;7937;48.090;16.212;2023-06-24T06:08:20;98082.47;;;13.72;88.50
15674;BME280;7937;48.090;16.212;2023-06-24T06:11:23;98298.47;;;14.76;90.38
15674;BME280;7937;48.090;16.212;2023-06-24T06:14:25;98145.69;;;13.73;90.85
15674;BME280;7937;48.090;16.212;2023-06-24T06:17:27;98315.84;;;14.68;91.89
15674;BME280;7937;48.090;16.212;2023-06-24T06:20:29;98349.03;;;14.89;92.60
15674;BME280;7937;48.090;16.212;2023-06-24T06:23:31;98352.53;;;14.89;93.00
15674;BME280;7937;48.090;16.212;2023-06-24T06:26:34;98315.13;;;14.78;93.17
15674;BME280;7937;48.090;16.212;2023-06-24T06:29:36;98146.00;;;13.76;94.56
15674;BME280;7937;48.090;16.212;2023-06-24T06:32:38;98307.06;;;14.78;93.89
15674;BME280;7937;48.090;16.212;2023-06-24T06:35:40;98272.31;;;14.61;92.46
15674;BME280;7937;48.090;16.212;2023-06-24T06:38:52;98243.72;;;14.44;92.34
15674;BME280;7937;48.090;16.212;2023-06-24T06:41:54;98281.00;;;14.68;93.02
15674;BME280;7937;48.090;16.212;2023-06-24T06:44:58;98337.94;;;15.07;91.48
15674;BME280;7937;48.090;16.212;2023-06-24T06:48:02;98308.13;;;14.77;91.73
15674;BME280;7937;48.090;16.212;2023-06-24T06:51:05;98326.41;;;14.80;92.66
15674;BME280;7937;48.090;16.212;2023-06-24T06:54:07;98348.53;;;14.92;92.50
15674;BME280;7937;48.090;16.212;2023-06-24T06:57:09;98356.19;;;15.05;92.27
15674;BME280;7937;48.090;16.212;2023-06-24T07:00:12;98357.78;;;15.06;92.71
15674;BME280;7937;48.090;16.212;2023-06-24T07:03:14;98331.78;;;14.80;93.33
15674;BME280;7937;48.090;16.212;2023-06-24T07:06:20;98328.09;;;14.86;91.92
15674;BME280;7937;48.090;16.212;2023-06-24T07:09:22;98372.09;;;15.17;90.25
15674;BME280;7937;48.090;16.212;2023-06-24T07:12:24;98289.22;;;14.61;90.65
15674;BME280;7937;48.090;16.212;2023-06-24T07:15:27;98334.47;;;14.80;92.41
15674;BME280;7937;48.090;16.212;2023-06-24T07:18:32;98298.38;;;14.65;91.72
15674;BME280;7937;48.090;16.212;2023-06-24T07:21:34;98316.66;;;14.68;92.89
15674;BME280;7937;48.090;16.212;2023-06-24T07:24:36;98341.00;;;14.89;92.30
15674;BME280;7937;48.090;16.212;2023-06-24T07:27:39;98304.03;;;14.47;93.94
15674;BME280;7937;48.090;16.212;2023-06-24T07:30:41;98223.94;;;14.02;92.19
15674;BME280;7937;48.090;16.212;2023-06-24T07:33:44;98371.06;;;14.91;93.13
15674;BME280;7937;48.090;16.212;2023-06-24T07:36:46;98359.56;;;14.95;91.14
15674;BME280;7937;48.090;16.212;2023-06-24T07:39:49;98364.06;;;14.90;92.07
15674;BME280;7937;48.090;16.212;2023-06-24T07:42:54;98348.91;;;14.74;91.64
15674;BME280;7937;48.090;16.212;2023-06-24T07:45:56;98278.94;;;14.31;91.17
15674;BME280;7937;48.090;16.212;2023-06-24T07:48:59;98371.97;;;14.75;92.41
15674;BME280;7937;48.090;16.212;2023-06-24T07:52:02;98343.31;;;14.80;91.16
15674;BME280;7937;48.090;16.212;2023-06-24T07:55:06;98380.81;;;15.02;93.08
15674;BME280;7937;48.090;16.212;2023-06-24T07:58:12;98378.91;;;15.25;90.23
15674;BME280;7937;48.090;16.212;2023-06-24T08:01:14;98394.16;;;15.19;90.21
15674;BME280;7937;48.090;16.212;2023-06-24T08:04:16;98389.63;;;15.25;88.15
15674;BME280;7937;48.090;16.212;2023-06-24T08:07:18;98392.00;;;15.21;87.97
15674;BME280;7937;48.090;16.212;2023-06-24T08:10:20;98274.50;;;14.42;88.38
15674;BME280;7937;48.090;16.212;2023-06-24T08:13:22;98342.88;;;14.88;87.01
15674;BME280;7937;48.090;16.212;2023-06-24T08:16:25;98370.13;;;15.07;87.28
15674;BME280;7937;48.090;16.212;2023-06-24T08:19:27;98410.63;;;15.28;86.80
15674;BME280;7937;48.090;16.212;2023-06-24T08:22:29;98397.44;;;14.99;87.93
15674;BME280;7937;48.090;16.212;2023-06-24T08:25:32;98413.16;;;15.12;88.87
15674;BME280;7937;48.090;16.212;2023-06-24T08:28:35;98393.75;;;15.05;87.90
15674;BME280;7937;48.090;16.212;2023-06-24T08:31:37;98398.75;;;15.23;85.70
15674;BME280;7937;48.090;16.212;2023-06-24T08:34:39;98396.75;;;15.09;88.09
15674;BME280;7937;48.090;16.212;2023-06-24T08:37:42;98417.91;;;15.32;87.09
15674;BME280;7937;48.090;16.212;2023-06-24T08:40:44;98357.69;;;14.96;87.75
15674;BME280;7937;48.090;16.212;2023-06-24T08:43:48;98406.81;;;15.23;86.48
15674;BME280;7937;48.090;16.212;2023-06-24T08:46:50;98340.44;;;14.87;86.46
15674;BME280;7937;48.090;16.212;2023-06-24T08:49:55;98418.53;;;15.44;86.42
15674;BME280;7937;48.090;16.212;2023-06-24T08:53:07;98383.56;;;15.07;86.85
15674;BME280;7937;48.090;16.212;2023-06-24T08:56:10;98427.94;;;15.42;87.28
15674;BME280;7937;48.090;16.212;2023-06-24T08:59:14;98339.81;;;15.07;85.76
15674;BME280;7937;48.090;16.212;2023-06-24T09:02:21;98383.38;;;15.14;87.20
15674;BME280;7937;48.090;16.212;2023-06-24T09:05:23;98404.31;;;15.17;88.28
15674;BME280;7937;48.090;16.212;2023-06-24T09:08:26;98359.66;;;15.06;86.56
15674;BME280;7937;48.090;16.212;2023-06-24T09:11:28;98434.66;;;15.44;88.25
15674;BME280;7937;48.090;16.212;2023-06-24T09:14:30;98423.97;;;15.49;87.08
15674;BME280;7937;48.090;16.212;2023-06-24T09:17:43;98377.72;;;15.42;84.40
15674;BME280;7937;48.090;16.212;2023-06-24T09:20:47;98391.00;;;15.27;85.06
15674;BME280;7937;48.090;16.212;2023-06-24T09:23:55;98435.94;;;15.64;85.86
15674;BME280;7937;48.090;16.212;2023-06-24T09:26:58;98394.03;;;15.36;85.63
15674;BME280;7937;48.090;16.212;2023-06-24T09:30:00;98333.66;;;14.79;87.09
15674;BME280;7937;48.090;16.212;2023-06-24T09:33:21;98265.38;;;14.43;85.00
15674;BME280;7937;48.090;16.212;2023-06-24T09:36:24;98405.03;;;15.34;85.99
15674;BME280;7937;48.090;16.212;2023-06-24T09:39:37;98445.94;;;15.46;88.19
15674;BME280;7937;48.090;16.212;2023-06-24T09:42:55;98436.16;;;15.62;87.39
15674;BME280;7937;48.090;16.212;2023-06-24T09:45:59;98405.34;;;15.38;87.33
15674;BME280;7937;48.090;16.212;2023-06-24T09:49:06;98395.84;;;15.57;87.64
15674;BME280;7937;48.090;16.212;2023-06-24T09:52:11;98428.81;;;15.80;86.99
15674;BME280;7937;48.090;16.212;2023-06-24T09:55:18;98410.00;;;15.80;84.23
15674;BME280;7937;48.090;16.212;2023-06-24T09:58:21;98368.03;;;15.41;84.38
15674;BME280;7937;48.090;16.212;2023-06-24T10:01:23;98404.84;;;15.46;86.22
15674;BME280;7937;48.090;16.212;2023-06-24T10:04:27;98379.97;;;15.23;87.43
15674;BME280;7937;48.090;16.212;2023-06-24T10:07:30;98448.97;;;15.55;89.01
15674;BME280;7937;48.090;16.212;2023-06-24T10:10:34;98361.41;;;15.22;87.39
15674;BME280;7937;48.090;16.212;2023-06-24T10:13:36;98313.50;;;14.77;87.77
15674;BME280;7937;48.090;16.212;2023-06-24T10:16:40;98416.34;;;15.41;86.46
15674;BME280;7937;48.090;16.212;2023-06-24T10:19:44;98370.97;;;15.08;87.84
15674;BME280;7937;48.090;16.212;2023-06-24T10:22:46;98375.50;;;15.07;87.62
15674;BME280;7937;48.090;16.212;2023-06-24T10:25:49;98418.63;;;15.22;87.12
15674;BME280;7937;48.090;16.212;2023-06-24T10:32:10;98454.47;;;15.38;86.83
15674;BME280;7937;48.090;16.212;2023-06-24T10:35:23;98387.47;;;14.94;88.24
15674;BME280;7937;48.090;16.212;2023-06-24T10:38:26;98436.47;;;15.39;87.62
15674;BME280;7937;48.090;16.212;2023-06-24T10:41:29;98437.06;;;15.46;87.48
15674;BME280;7937;48.090;16.212;2023-06-24T10:44:45;98394.41;;;15.17;88.58
15674;BME280;7937;48.090;16.212;2023-06-24T10:47:51;98439.25;;;15.49;87.10
15674;BME280;7937;48.090;16.212;2023-06-24T10:50:55;98431.25;;;15.54;87.93
15674;BME280;7937;48.090;16.212;2023-06-24T10:53:58;98424.91;;;15.65;87.89
15674;BME280;7937;48.090;16.212;2023-06-24T10:57:00;98346.44;;;15.26;88.47
15674;BME280;7937;48.090;16.212;2023-06-24T11:00:06;98412.28;;;15.98;86.30
15674;BME280;7937;48.090;16.212;2023-06-24T11:03:13;98418.78;;;16.07;86.87
15674;BME280;7937;48.090;16.212;2023-06-24T11:06:16;98401.63;;;16.13;84.41
15674;BME280;7937;48.090;16.212;2023-06-24T11:09:18;98384.75;;;15.81;85.57
15674;BME280;7937;48.090;16.212;2023-06-24T11:12:25;98258.50;;;15.06;84.62
15674;BME280;7937;48.090;16.212;2023-06-24T11:15:31;98346.06;;;15.77;84.42
15674;BME280;7937;48.090;16.212;2023-06-24T11:18:38;98402.69;;;16.12;83.51
15674;BME280;7937;48.090;16.212;2023-06-24T11:21:40;98391.59;;;15.98;84.04
15674;BME280;7937;48.090;16.212;2023-06-24T11:24:42;98371.88;;;15.83;85.32
15674;BME280;7937;48.090;16.212;2023-06-24T11:27:45;98410.66;;;15.97;84.54
15674;BME280;7937;48.090;16.212;2023-06-24T11:30:47;98212.69;;;14.81;83.20
15674;BME280;7937;48.090;16.212;2023-06-24T11:33:50;98346.16;;;15.60;84.51
15674;BME280;7937;48.090;16.212;2023-06-24T11:36:52;98339.97;;;15.59;84.46
15674;BME280;7937;48.090;16.212;2023-06-24T11:40:03;98343.44;;;15.55;85.30
15674;BME280;7937;48.090;16.212;2023-06-24T11:43:07;98392.03;;;15.85;85.55
15674;BME280;7937;48.090;16.212;2023-06-24T11:46:09;98393.19;;;15.62;84.46
15674;BME280;7937;48.090;16.212;2023-06-24T11:49:12;98367.78;;;15.43;84.74
15674;BME280;7937;48.090;16.212;2023-06-24T11:52:16;98381.31;;;15.53;85.27
15674;BME280;7937;48.090;16.212;2023-06-24T11:55:23;98404.53;;;15.69;84.52
15674;BME280;7937;48.090;16.212;2023-06-24T11:58:26;98405.63;;;15.68;85.74
15674;BME280;7937;48.090;16.212;2023-06-24T12:01:34;98309.56;;;15.16;84.58
15674;BME280;7937;48.090;16.212;2023-06-24T12:04:43;98308.50;;;15.12;85.64
15674;BME280;7937;48.090;16.212;2023-06-24T12:07:46;98382.94;;;15.59;86.65
15674;BME280;7937;48.090;16.212;2023-06-24T12:10:48;98371.63;;;15.52;86.05
15674;BME280;7937;48.090;16.212;2023-06-24T12:13:50;98317.72;;;15.27;85.29
15674;BME280;7937;48.090;16.212;2023-06-24T12:16:53;98373.78;;;15.55;84.18
15674;BME280;7937;48.090;16.212;2023-06-24T12:19:55;98327.41;;;15.28;85.03
15674;BME280;7937;48.090;16.212;2023-06-24T12:22:57;98407.22;;;15.69;85.23
15674;BME280;7937;48.090;16.212;2023-06-24T12:26:00;98381.81;;;15.50;84.67
15674;BME280;7937;48.090;16.212;2023-06-24T12:29:02;98372.66;;;15.51;85.65
15674;BME280;7937;48.090;16.212;2023-06-24T12:32:04;98392.84;;;15.54;84.94
15674;BME280;7937;48.090;16.212;2023-06-24T12:35:07;98408.00;;;15.65;83.99
15674;BME280;7937;48.090;16.212;2023-06-24T12:38:11;98426.31;;;15.68;83.49
15674;BME280;7937;48.090;16.212;2023-06-24T12:41:13;98429.38;;;15.82;82.77
15674;BME280;7937;48.090;16.212;2023-06-24T12:44:15;98400.63;;;15.55;84.47
15674;BME280;7937;48.090;16.212;2023-06-24T12:47:17;98365.09;;;15.43;83.49
15674;BME280;7937;48.090;16.212;2023-06-24T12:50:20;98388.75;;;15.46;83.86
15674;BME280;7937;48.090;16.212;2023-06-24T12:53:22;98413.56;;;15.58;84.24
15674;BME280;7937;48.090;16.212;2023-06-24T12:56:24;98408.59;;;15.45;84.34
15674;BME280;7937;48.090;16.212;2023-06-24T12:59:29;98382.22;;;15.37;84.23
15674;BME280;7937;48.090;16.212;2023-06-24T13:02:32;98430.88;;;15.67;84.10
15674;BME280;7937;48.090;16.212;2023-06-24T13:05:34;98427.31;;;15.62;84.49
15674;BME280;7937;48.090;16.212;2023-06-24T13:08:36;98417.66;;;15.66;84.51
15674;BME280;7937;48.090;16.212;2023-06-24T13:11:39;98410.19;;;15.68;84.56
15674;BME280;7937;48.090;16.212;2023-06-24T13:14:42;98379.06;;;15.45;84.37
15674;BME280;7937;48.090;16.212;2023-06-24T13:17:44;98415.03;;;15.71;84.35
15674;BME280;7937;48.090;16.212;2023-06-24T13:20:46;98329.00;;;15.29;86.09
15674;BME280;7937;48.090;16.212;2023-06-24T13:23:49;98413.97;;;16.09;82.49
15674;BME280;7937;48.090;16.212;2023-06-24T13:26:51;98425.28;;;16.11;82.79
15674;BME280;7937;48.090;16.212;2023-06-24T13:29:54;98381.66;;;15.99;82.89
15674;BME280;7937;48.090;16.212;2023-06-24T13:32:56;98398.34;;;16.01;82.02
15674;BME280;7937;48.090;16.212;2023-06-24T13:35:58;98294.41;;;15.32;81.47
15674;BME280;7937;48.090;16.212;2023-06-24T13:39:05;98406.41;;;16.01;83.90
15674;BME280;7937;48.090;16.212;2023-06-24T13:42:08;98384.53;;;15.87;82.52
15674;BME280;7937;48.090;16.212;2023-06-24T13:45:10;98351.94;;;15.73;83.46
15674;BME280;7937;48.090;16.212;2023-06-24T13:48:12;98275.09;;;15.35;81.64
15674;BME280;7937;48.090;16.212;2023-06-24T13:51:15;98354.38;;;15.80;82.30
15674;BME280;7937;48.090;16.212;2023-06-24T13:54:18;98377.69;;;16.12;81.58
15674;BME280;7937;48.090;16.212;2023-06-24T13:57:20;98374.47;;;16.15;81.79
15674;BME280;7937;48.090;16.212;2023-06-24T14:00:22;98386.38;;;16.29;81.95
15674;BME280;7937;48.090;16.212;2023-06-24T14:03:24;98337.81;;;15.93;82.41
15674;BME280;7937;48.090;16.212;2023-06-24T14:06:27;98348.34;;;16.05;82.59
15674;BME280;7937;48.090;16.212;2023-06-24T14:09:29;98369.75;;;16.37;80.18
15674;BME280;7937;48.090;16.212;2023-06-24T14:12:31;98340.34;;;16.15;82.01
15674;BME280;7937;48.090;16.212;2023-06-24T14:15:33;98204.97;;;15.27;81.84
15674;BME280;7937;48.090;16.212;2023-06-24T14:18:39;98361.91;;;16.25;81.32
15674;BME280;7937;48.090;16.212;2023-06-24T14:21:41;98392.63;;;16.45;81.28
15674;BME280;7937;48.090;16.212;2023-06-24T14:24:44;98361.41;;;16.34;81.08
15674;BME280;7937;48.090;16.212;2023-06-24T14:27:46;98366.78;;;16.34;81.18
15674;BME280;7937;48.090;16.212;2023-06-24T14:30:48;98378.69;;;16.48;82.86
15674;BME280;7937;48.090;16.212;2023-06-24T14:33:51;98372.22;;;16.49;80.72
15674;BME280;7937;48.090;16.212;2023-06-24T14:36:53;98291.66;;;16.07;80.79
15674;BME280;7937;48.090;16.212;2023-06-24T14:39:55;98326.97;;;16.25;80.86
15674;BME280;7937;48.090;16.212;2023-06-24T14:42:59;98367.69;;;16.65;79.91
15674;BME280;7937;48.090;16.212;2023-06-24T14:46:01;98369.34;;;16.71;79.73
15674;BME280;7937;48.090;16.212;2023-06-24T14:49:04;98379.91;;;16.83;78.65
15674;BME280;7937;48.090;16.212;2023-06-24T14:52:06;98317.59;;;16.43;79.96
15674;BME280;7937;48.090;16.212;2023-06-24T14:55:09;98195.63;;;15.77;79.85
15674;BME280;7937;48.090;16.212;2023-06-24T14:58:11;98349.78;;;16.86;78.46
15674;BME280;7937;48.090;16.212;2023-06-24T15:01:16;98350.88;;;16.85;79.00
15674;BME280;7937;48.090;16.212;2023-06-24T15:04:22;98362.22;;;17.22;76.18
15674;BME280;7937;48.090;16.212;2023-06-24T15:07:24;98279.75;;;16.60;76.57
15674;BME280;7937;48.090;16.212;2023-06-24T15:10:27;98341.72;;;17.01;76.96
15674;BME280;7937;48.090;16.212;2023-06-24T15:13:29;98222.66;;;16.28;76.57
15674;BME280;7937;48.090;16.212;2023-06-24T15:16:31;98330.41;;;17.04;77.28
15674;BME280;7937;48.090;16.212;2023-06-24T15:19:34;98342.28;;;17.23;78.45
15674;BME280;7937;48.090;16.212;2023-06-24T15:22:36;98344.72;;;17.25;76.87
15674;BME280;7937;48.090;16.212;2023-06-24T15:25:38;98345.81;;;17.39;76.99
15674;BME280;7937;48.090;16.212;2023-06-24T15:28:41;98293.81;;;17.08;76.80
15674;BME280;7937;48.090;16.212;2023-06-24T15:31:43;98350.09;;;17.40;76.53
15674;BME280;7937;48.090;16.212;2023-06-24T15:34:45;98350.63;;;17.42;76.53
15674;BME280;7937;48.090;16.212;2023-06-24T15:37:48;98345.78;;;17.65;75.12
15674;BME280;7937;48.090;16.212;2023-06-24T15:40:51;98298.13;;;17.30;74.87
15674;BME280;7937;48.090;16.212;2023-06-24T15:43:53;98308.63;;;17.41;76.11
15674;BME280;7937;48.090;16.212;2023-06-24T15:46:55;98329.34;;;17.66;73.20
15674;BME280;7937;48.090;16.212;2023-06-24T15:49:58;98337.94;;;17.63;74.37
15674;BME280;7937;48.090;16.212;2023-06-24T15:53:00;98282.50;;;17.37;74.53
15674;BME280;7937;48.090;16.212;2023-06-24T15:56:02;98282.22;;;17.33;74.39
15674;BME280;7937;48.090;16.212;2023-06-24T15:59:05;98281.41;;;17.38;73.20
15674;BME280;7937;48.090;16.212;2023-06-24T16:02:07;98253.41;;;17.18;73.66
15674;BME280;7937;48.090;16.212;2023-06-24T16:05:09;98335.31;;;17.73;74.43
15674;BME280;7937;48.090;16.212;2023-06-24T16:08:11;98279.28;;;17.35;73.23
15674;BME280;7937;48.090;16.212;2023-06-24T16:11:14;98324.78;;;17.57;75.00
15674;BME280;7937;48.090;16.212;2023-06-24T16:14:16;98269.03;;;17.37;74.34
15674;BME280;7937;48.090;16.212;2023-06-24T16:17:18;98325.84;;;17.66;74.77
15674;BME280;7937;48.090;16.212;2023-06-24T16:20:21;98222.72;;;17.09;72.19
15674;BME280;7937;48.090;16.212;2023-06-24T16:23:23;98256.66;;;17.31;74.10